Alanya, Turkey
Current Conditions -  °F | °C
As of 5:20 PM on Sunday 25 Jan 2015 (Local Time) from LTAI Reporting Station
Broken Clouds Broken Clouds  
Wind Chill: 55°   Ceiling: 3000
Heat Index: 55°   Visibility: 6mi
Dew Point: 48°   Wind: 7mph
Humidity: 77%   Direction: 80°E
Pressure: 30"   Gusts: NA
Location:  36.56°N, 32°E
Report Text: LTAI 251420Z 08006KT 050V130 9999 BKN030 13/09 Q1016 BECMG 15010KT
Loading
Personal Weather Stations






























Interactive Weather Map New forecast layout! Learn more

10-Day Weather Forecast

Advertisements
Track Severe Weather on mobile